Latest Weather Observations for Frankston

IDV60801

Issued at 5:42 am EST Tuesday 26 June 2018 (issued every 10 minutes, with the page automatically refreshed every 10 minutes)

About weather observations | Map of weather stations | Latest weather observations for VIC | Other Formats
Station Details ID: 086371 Name: FRANKSTON AWS Lat: -38.15 Lon: 145.12 Height: 6.0 m
Data from the previous 72 hours. | See also: Recent months at Frankston
Date/Time
EST
Temp
°C
App
Temp
°C
Dew
Point
°C
Rel
Hum
%
Delta-T
°C
Wind Press
QNH
hPa
Press
MSL
hPa
Rain since
9am
mm
Dir  Spd
km/h
Gust
km/h
Spd
kts
Gust
kts
26/05:30am 9.7 9.4 8.8 94 0.4 CALM 0 0 0 0 - - -
26/05:00am 9.7 9.4 8.8 94 0.4 CALM 0 0 0 0 - - -
26/04:30am 9.6 9.3 8.5 93 0.5 CALM 0 0 0 0 - - -
26/04:00am 9.6 9.3 8.5 93 0.5 CALM 0 0 0 0 - - -
26/03:30am 9.5 9.1 8.4 93 0.5 CALM 0 0 0 0 - - -
26/03:00am 9.4 9.0 8.3 93 0.5 CALM 0 0 0 0 - - -
26/02:30am 9.6 9.2 8.4 92 0.6 CALM 0 0 0 0 - - -
26/02:00am 9.4 9.0 8.2 92 0.6 CALM 0 0 0 0 - - -
26/01:30am 9.7 9.4 8.5 92 0.6 CALM 0 0 0 0 - - -
26/01:00am 9.7 9.3 8.3 91 0.7 CALM 0 0 0 0 - - -
26/12:30am 9.7 9.3 8.3 91 0.7 CALM 0 0 0 0 - - -
26/12:00am 9.7 9.3 8.1 90 0.8 CALM 0 0 0 0 - - -
 
Date/Time
EST
Temp
°C
App
Temp
°C
Dew
Point
°C
Rel
Hum
%
Delta-T
°C
Wind Press
QNH
hPa
Press
MSL
hPa
Rain since
9am
mm
Dir  Spd
km/h
Gust
km/h
Spd
kts
Gust
kts
25/11:30pm 9.8 9.4 8.1 89 0.8 CALM 0 0 0 0 - - -
25/11:00pm 9.8 9.3 7.9 88 0.9 CALM 0 0 0 0 - - -
25/10:30pm 10.0 9.6 8.1 88 0.9 CALM 0 2 0 1 - - -
25/10:00pm 10.0 8.8 7.9 87 1.0 SE 4 4 2 2 - - -
25/09:30pm 10.0 9.1 7.6 85 1.1 SE 2 6 1 3 - - -
25/09:00pm 10.4 8.8 7.8 84 1.3 SSE 6 7 3 4 - - -
25/08:30pm 10.4 9.1 7.8 84 1.3 SE 4 6 2 3 - - -
25/08:00pm 10.6 10.1 7.8 83 1.4 CALM 0 0 0 0 - - -
25/07:30pm 10.6 10.1 7.8 83 1.4 CALM 0 0 0 0 - - -
25/07:00pm 10.7 9.5 8.1 84 1.3 S 4 6 2 3 - - -
25/06:30pm 10.6 10.1 8.0 84 1.3 CALM 0 2 0 1 - - -
25/06:00pm 10.6 10.1 8.0 84 1.3 CALM 0 0 0 0 - - -
25/05:30pm 10.5 10.0 7.9 84 1.3 CALM 0 0 0 0 - - -
25/05:00pm 10.5 10.0 7.9 84 1.3 CALM 0 0 0 0 - - -
25/04:30pm 10.7 10.3 8.1 84 1.3 CALM 0 0 0 0 - - -
25/04:00pm 10.7 9.9 8.1 84 1.3 NNW 2 4 1 2 - - -
25/03:30pm 10.8 9.3 8.4 85 1.2 N 6 6 3 3 - - -
25/03:00pm 11.1 10.5 9.0 87 1.0 NNW 2 2 1 1 - - -
25/02:30pm 10.2 8.7 8.5 89 0.8 NNW 6 6 3 3 - - -
25/02:00pm 10.4 9.8 8.8 90 0.8 NNW 2 4 1 2 - - -
25/01:30pm 9.7 8.2 8.3 91 0.7 WNW 6 7 3 4 - - -
25/01:00pm 9.7 8.2 8.3 91 0.7 WNW 6 7 3 4 - - -
25/12:30pm 9.7 8.6 8.5 92 0.6 NW 4 6 2 3 - - -
25/12:00pm 9.5 7.4 8.3 92 0.6 WNW 9 11 5 6 - - -
25/11:30am 9.5 7.4 8.3 92 0.6 NW 9 13 5 7 - - -
25/11:00am 9.2 7.4 8.0 92 0.6 WNW 7 11 4 6 - - -
25/10:30am 9.2 7.6 8.0 92 0.6 WNW 6 7 3 4 - - -
25/10:00am 9.1 6.9 7.9 92 0.6 WNW 9 9 5 5 - - -
25/09:30am 9.5 8.0 8.4 93 0.5 W 6 9 3 5 - - -
25/09:00am 9.3 7.5 8.1 92 0.6 WSW 7 9 4 5 - - -
25/08:30am 9.1 7.2 7.7 91 0.7 SW 7 9 4 5 - - -
25/08:00am 9.1 7.8 7.5 90 0.8 SW 4 6 2 3 - - -
25/07:30am 9.3 7.0 7.4 88 0.9 SW 9 11 5 6 - - -
25/07:00am 9.3 6.2 7.3 87 0.9 WSW 13 20 7 11 - - -
25/06:30am 9.8 6.5 6.5 80 1.5 SW 13 19 7 10 - - -
25/06:00am 10.1 7.9 6.4 78 1.7 SW 7 13 4 7 - - -
25/05:30am 10.2 6.1 6.0 75 1.9 SW 17 22 9 12 - - -
25/05:00am 10.4 8.1 5.8 73 2.1 SW 7 11 4 6 - - -
25/04:30am 10.5 7.9 5.9 73 2.1 SW 9 15 5 8 - - -
25/04:00am 11.0 6.2 5.5 69 2.5 WSW 20 24 11 13 - - -
25/03:30am 11.2 6.7 5.9 70 2.5 W 19 22 10 12 - - -
25/03:00am 11.2 6.7 5.9 70 2.5 WSW 19 20 10 11 - - -
25/02:30am 11.2 6.4 5.7 69 2.5 WSW 20 24 11 13 - - -
25/02:00am 11.1 6.4 5.2 67 2.7 W 19 24 10 13 - - -
25/01:30am 11.0 6.3 5.3 68 2.6 WSW 19 22 10 12 - - -
25/01:00am 11.0 6.4 5.5 69 2.5 W 19 22 10 12 - - -
25/12:30am 10.9 6.2 5.2 68 2.6 W 19 24 10 13 - - -
25/12:00am 11.1 6.9 5.8 70 2.5 W 17 20 9 11 - - -
 
Date/Time
EST
Temp
°C
App
Temp
°C
Dew
Point
°C
Rel
Hum
%
Delta-T
°C
Wind Press
QNH
hPa
Press
MSL
hPa
Rain since
9am
mm
Dir  Spd
km/h
Gust
km/h
Spd
kts
Gust
kts
24/11:30pm 10.9 6.7 5.7 70 2.4 W 17 19 9 10 - - -
24/11:00pm 11.0 6.5 6.0 71 2.3 W 19 24 10 13 - - -
24/10:30pm 10.9 8.4 6.5 74 2.1 WSW 9 19 5 10 - - -
24/10:00pm 11.2 8.7 6.7 74 2.1 W 9 11 5 6 - - -
24/09:30pm 10.8 8.6 6.2 73 2.1 SW 7 11 4 6 - - -
24/09:00pm 10.4 8.7 5.8 73 2.1 SW 4 6 2 3 - - -
24/08:30pm 10.4 8.1 5.6 72 2.2 SSE 7 9 4 5 - - -
24/08:00pm 10.5 8.3 5.1 69 2.5 SSE 6 9 3 5 - - -
24/07:30pm 11.0 9.2 5.3 68 2.6 S 4 7 2 4 - - -
24/07:00pm 11.1 8.8 5.0 66 2.8 S 6 7 3 4 - - -
24/06:30pm 11.5 10.3 4.7 63 3.1 CALM 0 0 0 0 - - -
24/06:00pm 11.6 9.7 4.8 63 3.1 SSW 4 6 2 3 - - -
24/05:30pm 11.7 9.5 5.3 65 2.9 SW 6 9 3 5 - - -
24/05:00pm 11.7 9.6 5.6 66 2.8 SW 6 11 3 6 - - -
24/04:30pm 12.0 8.9 5.6 65 3.0 SW 11 15 6 8 - - -
24/04:00pm 12.1 10.0 6.6 69 2.6 WSW 7 13 4 7 - - -
24/03:30pm 11.5 9.5 6.4 71 2.4 W 6 6 3 3 - - -
24/03:00pm 11.7 9.1 6.2 69 2.6 WSW 9 11 5 6 - - -
24/02:30pm 12.0 8.8 5.2 63 3.1 WSW 11 15 6 8 - - -
24/02:00pm 12.1 8.1 5.0 62 3.3 SW 15 20 8 11 - - -
24/01:30pm 11.9 8.6 6.2 68 2.7 WSW 13 17 7 9 - - -
24/01:00pm 11.8 10.9 7.7 76 2.0 WSW 2 9 1 5 - - -
24/12:30pm 11.2 9.9 7.5 78 1.8 W 4 4 2 2 - - -
24/12:00pm 11.2 9.0 7.9 80 1.6 W 9 13 5 7 - - -
24/11:30am 11.0 9.4 8.6 85 1.2 WSW 7 11 4 6 - - -
24/11:00am 11.0 10.8 8.9 87 1.0 CALM 0 2 0 1 - - -
24/10:30am 10.8 10.2 8.9 88 0.9 NE 2 4 1 2 - - -
24/10:00am 10.1 9.0 8.4 89 0.8 E 4 6 2 3 - - -
24/09:30am 9.8 8.6 7.9 88 0.9 ESE 4 6 2 3 - - -
24/09:00am 9.7 8.4 7.8 88 0.9 ESE 4 6 2 3 - - -
24/08:30am 9.5 8.1 7.4 87 1.0 E 4 6 2 3 - - -
24/08:00am 9.5 8.9 7.3 86 1.0 CALM 0 0 0 0 - - -
24/07:30am 9.6 9.0 7.2 85 1.1 CALM 0 0 0 0 - - -
24/07:00am 10.1 9.6 7.7 85 1.2 CALM 0 2 0 1 - - -
24/06:30am 10.7 9.2 8.3 85 1.2 WNW 6 7 3 4 - - -
24/06:00am 10.4 8.8 8.2 86 1.1 WNW 6 9 3 5 - - -
24/05:30am 10.2 8.4 8.1 87 1.0 WSW 7 9 4 5 - - -
24/05:00am 9.5 7.8 7.4 87 1.0 WSW 6 6 3 3 - - -
24/04:30am 9.1 8.3 6.7 85 1.1 CALM 0 0 0 0 - - -
24/04:00am 9.1 7.1 6.4 83 1.2 SSW 6 9 3 5 - - -
24/03:30am 9.6 8.1 6.7 82 1.4 SW 4 4 2 2 - - -
24/03:00am 9.6 7.7 6.7 82 1.4 S 6 7 3 4 - - -
24/02:30am 9.1 7.1 6.2 82 1.3 SE 6 9 3 5 - - -
24/02:00am 9.1 5.7 5.8 80 1.5 SSW 13 26 7 14 - - -
24/01:30am 9.6 7.2 5.4 75 1.9 S 7 11 4 6 - - -
24/01:00am 9.8 7.4 5.4 74 2.0 SSE 7 9 4 5 - - -
24/12:30am 10.0 7.5 5.0 71 2.3 S 7 11 4 6 - - -
24/12:00am 10.2 7.8 5.2 71 2.3 S 7 15 4 8 - - -
 
Date/Time
EST
Temp
°C
App
Temp
°C
Dew
Point
°C
Rel
Hum
%
Delta-T
°C
Wind Press
QNH
hPa
Press
MSL
hPa
Rain since
9am
mm
Dir  Spd
km/h
Gust
km/h
Spd
kts
Gust
kts
23/11:30pm 10.6 7.9 5.4 70 2.4 S 9 11 5 6 - - -
23/11:00pm 10.6 8.5 5.6 71 2.3 SSW 6 7 3 4 - - -
23/10:30pm 10.7 8.6 6.5 75 2.0 S 7 9 4 5 - - -
23/10:00pm 10.6 8.5 6.7 77 1.8 SSW 7 9 4 5 - - -
23/09:30pm 10.7 9.8 7.6 81 1.5 SSW 2 4 1 2 - - -
23/09:00pm 11.0 9.5 8.6 85 1.2 SSW 6 7 3 4 - - -
23/08:30pm 11.0 9.7 9.1 88 0.9 SSW 6 7 3 4 - - -
23/08:00pm 10.5 9.9 9.1 91 0.7 WSW 2 4 1 2 - - -
23/07:30pm 10.8 10.4 9.7 93 0.6 WSW 2 6 1 3 - - -
23/07:00pm 10.7 10.7 9.8 94 0.5 CALM 0 0 0 0 - - -
23/06:30pm 10.4 9.9 9.3 93 0.5 ESE 2 6 1 3 - - -
23/06:00pm 10.8 10.8 9.7 93 0.6 CALM 0 0 0 0 - - -
23/05:30pm 10.9 9.8 9.8 93 0.6 WSW 6 7 3 4 - - -
23/05:00pm 10.8 9.4 9.7 93 0.6 WSW 7 9 4 5 - - -
23/04:30pm 10.9 9.6 9.8 93 0.6 WSW 7 9 4 5 - - -
23/04:00pm 10.7 7.4 9.6 93 0.6 WSW 17 22 9 12 - - -
23/03:30pm 10.9 7.0 9.5 91 0.7 WSW 20 24 11 13 - - -
23/03:00pm 10.7 5.5 9.0 89 0.8 WSW 26 33 14 18 - - -
23/02:30pm 11.8 7.9 8.8 82 1.5 W 19 22 10 12 - - -
23/02:00pm 11.4 6.8 8.3 81 1.5 WNW 22 26 12 14 - - -
23/01:30pm 11.4 7.4 8.1 80 1.6 WNW 19 22 10 12 - - -
23/01:00pm 11.3 7.0 7.8 79 1.7 WNW 20 24 11 13 - - -
23/12:30pm 11.1 6.6 7.0 76 2.0 WNW 20 26 11 14 - - -
23/12:00pm 11.2 7.1 6.3 72 2.3 WNW 17 22 9 12 - - -
23/11:30am 11.3 8.0 6.4 72 2.3 NW 13 17 7 9 - - -
23/11:00am 10.9 7.6 6.3 73 2.2 N 13 19 7 10 - - -
23/10:30am 10.6 6.8 6.0 73 2.1 N 15 19 8 10 - - -
23/10:00am 10.1 6.3 5.7 74 2.0 N 15 17 8 9 - - -
23/09:30am 9.4 7.0 5.2 75 1.9 NNE 7 11 4 6 - - -
23/09:00am 9.2 6.4 5.2 76 1.8 NNE 9 15 5 8 - - -
23/08:30am 8.5 6.6 4.9 78 1.6 ENE 4 6 2 3 - - -
23/08:00am 7.5 6.2 3.9 78 1.5 CALM 0 6 0 3 - - -
23/07:30am 8.0 5.4 4.4 78 1.6 NNE 7 9 4 5 - - -
23/07:00am 7.9 5.4 4.5 79 1.5 NE 7 11 4 6 - - -
23/06:30am 7.6 5.2 4.4 80 1.4 ESE 6 9 3 5 - - -
23/06:00am 7.0 4.5 3.8 80 1.4 E 6 7 3 4 - - -

Other Formats:

Comma delimited format used in spreadsheet applications
http://www.bom.gov.au/fwo/IDV60801/IDV60801.94871.axf

JavaScript Object Notation format (JSON) in row-major order
http://www.bom.gov.au/fwo/IDV60801/IDV60801.94871.json